Time;durP1;ratioP1;P1;durP2;ratioP2;P2;SDS_P1;SDS_P2;PMS_P1;PMS_P2;Temp;Humidity;BMP_temperature;BMP_pressure;BME280_temperature;BME280_humidity;BME280_pressure;Samples;Min_cycle;Max_cycle;Signal;HPM_P1;HPM_P2
2021/08/05 00:01:22;;;;;;;4.70;2.92;;;19.30;80.60;;;;;;5074582;28;20100;-76
2021/08/05 00:03:47;;;;;;;4.30;3.03;;;19.30;80.60;;;;;;5073238;28;20097;-76
2021/08/05 00:06:13;;;;;;;5.88;3.13;;;19.20;80.60;;;;;;5073125;28;20478;-76
2021/08/05 00:08:39;;;;;;;7.45;3.40;;;19.30;80.80;;;;;;5073313;28;20063;-76
2021/08/05 00:11:05;;;;;;;5.20;3.10;;;19.20;81.00;;;;;;5072859;28;20032;-76
2021/08/05 00:13:31;;;;;;;5.97;3.60;;;19.20;81.20;;;;;;5074094;28;20499;-76
2021/08/05 00:15:57;;;;;;;5.40;3.65;;;19.20;81.30;;;;;;5056229;28;20039;-76
2021/08/05 00:18:24;;;;;;;6.28;4.03;;;19.20;81.40;;;;;;5055993;28;20025;-76
2021/08/05 00:20:50;;;;;;;6.00;4.07;;;19.20;81.50;;;;;;5072695;28;20025;-76
2021/08/05 00:23:15;;;;;;;6.22;3.83;;;19.20;81.50;;;;;;5055893;28;20066;-76
2021/08/05 00:25:41;;;;;;;6.93;4.25;;;19.20;81.60;;;;;;5072490;28;20150;-76
2021/08/05 00:28:06;;;;;;;5.43;4.15;;;19.20;81.70;;;;;;5072550;28;20029;-76
2021/08/05 00:30:32;;;;;;;5.20;3.90;;;19.20;81.80;;;;;;5072583;28;20407;-76
2021/08/05 00:32:58;;;;;;;7.10;3.97;;;19.20;81.80;;;;;;5073618;28;20070;-77
2021/08/05 00:35:24;;;;;;;5.63;3.80;;;19.20;82.50;;;;;;5055774;28;20025;-76
2021/08/05 00:37:49;;;;;;;6.80;4.85;;;19.20;82.00;;;;;;5072578;28;20029;-76
2021/08/05 00:40:15;;;;;;;7.20;4.82;;;19.10;82.00;;;;;;5055937;28;20484;-77
2021/08/05 00:42:41;;;;;;;5.57;3.78;;;19.10;82.10;;;;;;5072536;28;20420;-77
2021/08/05 00:45:07;;;;;;;6.60;4.53;;;19.10;82.20;;;;;;5072390;28;20488;-77
2021/08/05 00:47:33;;;;;;;7.07;4.93;;;19.10;82.20;;;;;;5055780;28;20044;-77
2021/08/05 00:49:59;;;;;;;7.38;5.13;;;19.10;82.10;;;;;;5039493;28;20017;-77
2021/08/05 00:52:25;;;;;;;6.75;4.85;;;19.00;82.00;;;;;;5073892;28;20168;-76
2021/08/05 00:54:51;;;;;;;6.50;4.82;;;19.00;82.00;;;;;;5071979;28;20480;-76
2021/08/05 00:57:16;;;;;;;7.20;4.78;;;19.10;82.20;;;;;;5073663;28;20043;-76
2021/08/05 00:59:42;;;;;;;9.65;5.05;;;19.00;82.20;;;;;;5055643;28;20025;-76
2021/08/05 01:02:11;;;;;;;7.80;5.40;;;19.00;82.40;;;;;;5073957;28;20028;-76
2021/08/05 01:04:38;;;;;;;9.07;5.32;;;19.00;83.10;;;;;;5072271;28;20542;-76
2021/08/05 01:07:15;;;;;;;7.53;4.90;;;19.00;82.60;;;;;;5072626;28;20449;-76
2021/08/05 01:09:51;;;;;;;5.90;4.20;;;18.90;82.70;;;;;;5072158;28;20031;-76
2021/08/05 01:12:46;;;;;;;7.05;4.10;;;18.90;83.00;;;;;;5073448;28;20024;-76
2021/08/05 01:15:24;;;;;;;6.65;4.38;;;18.80;83.40;;;;;;5072058;28;20036;-76
2021/08/05 01:18:12;;;;;;;6.45;4.30;;;18.80;83.60;;;;;;5073469;28;20036;-76
2021/08/05 01:20:43;;;;;;;7.68;5.25;;;18.70;83.80;;;;;;5068076;28;20369;-76
2021/08/05 01:24:01;;;;;;;6.93;4.47;;;18.70;84.00;;;;;;5055051;28;20475;-76
2021/08/05 01:26:30;;;;;;;5.90;4.20;;;18.60;84.40;;;;;;5071531;28;20119;-76
2021/08/05 01:28:56;;;;;;;7.55;4.68;;;18.60;84.50;;;;;;5072460;28;20090;-76
2021/08/05 01:31:24;;;;;;;6.38;4.25;;;18.60;84.60;;;;;;5039214;28;20120;-76
2021/08/05 01:33:51;;;;;;;8.18;4.88;;;18.50;84.80;;;;;;5072115;28;20038;-76
2021/08/05 01:36:17;;;;;;;8.63;5.20;;;18.50;85.30;;;;;;5055422;28;20055;-76
2021/08/05 01:38:45;;;;;;;6.93;4.85;;;18.40;85.50;;;;;;5054986;28;20028;-76
2021/08/05 01:41:11;;;;;;;8.18;4.97;;;18.40;85.60;;;;;;5071767;28;20021;-76
2021/08/05 01:43:39;;;;;;;7.18;5.03;;;18.40;85.90;;;;;;5071919;28;20085;-76
2021/08/05 01:46:06;;;;;;;6.95;5.22;;;18.40;86.20;;;;;;5072339;28;20023;-76
2021/08/05 01:48:32;;;;;;;6.65;5.15;;;18.30;86.30;;;;;;5073284;28;20060;-76
2021/08/05 01:50:59;;;;;;;7.55;5.07;;;18.30;86.40;;;;;;5073284;28;20032;-76
2021/08/05 01:53:26;;;;;;;7.90;5.20;;;18.30;86.60;;;;;;5073477;28;20059;-76
2021/08/05 01:55:52;;;;;;;7.95;5.88;;;18.30;86.70;;;;;;5055212;28;20025;-76
2021/08/05 01:58:18;;;;;;;7.65;5.57;;;18.30;86.80;;;;;;5071991;28;20028;-76
2021/08/05 02:00:44;;;;;;;9.18;5.57;;;18.30;86.80;;;;;;5072015;28;20020;-76
2021/08/05 02:03:11;;;;;;;7.50;5.57;;;18.30;86.70;;;;;;5038313;28;20142;-76
2021/08/05 02:05:55;;;;;;;7.63;5.35;;;18.30;86.70;;;;;;5069646;28;20415;-76
2021/08/05 02:08:34;;;;;;;8.10;5.72;;;18.30;86.70;;;;;;5074408;28;20131;-76
2021/08/05 02:10:59;;;;;;;7.28;5.05;;;18.30;86.70;;;;;;5076151;28;20099;-76
2021/08/05 02:13:33;;;;;;;9.02;5.68;;;18.30;86.70;;;;;;5075297;28;20086;-76
2021/08/05 02:16:04;;;;;;;7.60;5.18;;;18.30;86.80;;;;;;5076342;28;20021;-76
2021/08/05 02:18:33;;;;;;;7.18;5.07;;;18.30;86.80;;;;;;5075009;28;20032;-76
2021/08/05 02:21:00;;;;;;;7.50;5.13;;;18.20;86.80;;;;;;5076226;28;20029;-77
2021/08/05 02:23:27;;;;;;;9.00;5.28;;;18.20;86.90;;;;;;5058275;28;20060;-76
2021/08/05 02:25:54;;;;;;;8.95;5.63;;;18.20;86.90;;;;;;5076177;28;20032;-76
2021/08/05 02:28:21;;;;;;;8.43;5.70;;;18.30;87.00;;;;;;5074767;28;20034;-76
2021/08/05 02:30:52;;;;;;;9.05;5.97;;;18.20;87.00;;;;;;5074813;28;20035;-76
2021/08/05 02:33:19;;;;;;;7.95;5.03;;;18.20;87.20;;;;;;5058113;28;20374;-77
2021/08/05 02:35:47;;;;;;;7.95;5.88;;;18.20;87.20;;;;;;5041499;28;20040;-76
2021/08/05 02:38:14;;;;;;;7.20;5.25;;;18.20;87.10;;;;;;5074594;28;20028;-76
2021/08/05 02:40:42;;;;;;;8.02;5.80;;;18.20;87.10;;;;;;5075901;28;20480;-76
2021/08/05 02:43:09;;;;;;;9.35;6.15;;;18.20;87.10;;;;;;5074604;28;20050;-76
2021/08/05 02:45:35;;;;;;;7.90;5.45;;;18.20;87.10;;;;;;5074654;28;20037;-77
2021/08/05 02:48:03;;;;;;;7.30;5.47;;;18.20;87.40;;;;;;5075747;28;20033;-77
2021/08/05 02:50:30;;;;;;;10.35;6.40;;;18.10;87.70;;;;;;5075627;28;20476;-76
2021/08/05 02:52:56;;;;;;;8.15;6.10;;;18.10;88.00;;;;;;5057717;28;20036;-76
2021/08/05 02:55:23;;;;;;;8.13;5.85;;;18.10;88.10;;;;;;5057806;28;20123;-76
2021/08/05 02:57:51;;;;;;;8.98;6.13;;;18.10;88.20;;;;;;5074260;28;20025;-76
2021/08/05 03:00:17;;;;;;;7.80;5.70;;;18.10;88.20;;;;;;5074430;28;20033;-76
2021/08/05 03:02:43;;;;;;;8.57;5.68;;;18.10;88.20;;;;;;5074337;28;20035;-76
2021/08/05 03:05:09;;;;;;;9.50;5.78;;;18.10;88.40;;;;;;5074364;28;20539;-77
2021/08/05 03:07:35;;;;;;;9.10;5.85;;;18.10;88.40;;;;;;5074169;28;20017;-77
2021/08/05 03:10:02;;;;;;;8.95;6.15;;;18.10;88.30;;;;;;5075417;28;20029;-78
2021/08/05 03:12:27;;;;;;;8.18;6.05;;;18.10;88.40;;;;;;5057311;28;20025;-77
2021/08/05 03:14:53;;;;;;;8.65;6.57;;;18.10;88.50;;;;;;5057322;28;20036;-77
2021/08/05 03:17:18;;;;;;;7.63;6.43;;;18.00;88.60;;;;;;5074989;28;20028;-77
2021/08/05 03:19:44;;;;;;;9.00;6.20;;;18.10;88.80;;;;;;5073757;28;20040;-77
2021/08/05 03:22:10;;;;;;;8.75;6.28;;;18.00;88.90;;;;;;5057065;28;20091;-77
2021/08/05 03:24:35;;;;;;;9.00;6.60;;;18.00;89.00;;;;;;5057247;28;20480;-77
2021/08/05 03:27:01;;;;;;;9.15;6.22;;;18.00;89.20;;;;;;5040512;28;20031;-77
2021/08/05 03:29:27;;;;;;;9.25;6.82;;;18.00;89.30;;;;;;5057305;28;20036;-78
2021/08/05 03:31:52;;;;;;;9.00;6.60;;;18.00;89.40;;;;;;5057196;28;20101;-77
2021/08/05 03:34:18;;;;;;;13.73;7.32;;;18.00;90.00;;;;;;5070628;28;20456;-77
2021/08/05 03:36:43;;;;;;;9.52;6.90;;;18.00;89.40;;;;;;5073577;28;20070;-77
2021/08/05 03:39:09;;;;;;;9.45;6.95;;;18.00;89.40;;;;;;5056771;28;20063;-77
2021/08/05 03:41:35;;;;;;;9.77;6.90;;;18.00;89.50;;;;;;5073575;28;20021;-77
2021/08/05 03:44:00;;;;;;;9.20;7.22;;;18.00;89.50;;;;;;5075309;28;20107;-77
2021/08/05 03:46:27;;;;;;;14.98;7.63;;;18.00;89.40;;;;;;5074025;28;20107;-77
2021/08/05 03:48:52;;;;;;;10.30;8.18;;;18.00;89.30;;;;;;5073997;28;20056;-77
2021/08/05 03:51:18;;;;;;;11.68;7.80;;;17.90;89.30;;;;;;5057095;28;20052;-77
2021/08/05 03:53:44;;;;;;;8.82;6.82;;;18.00;89.40;;;;;;5075105;28;20455;-77
2021/08/05 03:56:10;;;;;;;11.93;7.40;;;17.90;89.40;;;;;;5073528;28;20136;-77
2021/08/05 03:58:35;;;;;;;9.88;7.47;;;17.90;89.60;;;;;;5056821;28;20104;-77
2021/08/05 04:01:01;;;;;;;10.95;8.02;;;17.90;89.70;;;;;;5039135;28;20028;-77
2021/08/05 04:03:27;;;;;;;9.82;7.25;;;17.90;89.80;;;;;;5073060;28;20024;-78
2021/08/05 04:05:52;;;;;;;9.40;7.25;;;17.90;90.00;;;;;;5056457;28;20028;-77
2021/08/05 04:08:18;;;;;;;13.45;8.18;;;17.80;90.00;;;;;;5056326;28;20095;-77
2021/08/05 04:10:43;;;;;;;10.70;8.40;;;17.80;90.10;;;;;;5073104;28;20029;-77
2021/08/05 04:13:09;;;;;;;10.10;8.18;;;17.80;90.20;;;;;;5073287;28;20487;-77
2021/08/05 04:15:35;;;;;;;11.27;8.15;;;17.80;90.20;;;;;;5072698;28;20412;-77
2021/08/05 04:18:00;;;;;;;11.48;8.02;;;17.80;90.30;;;;;;5074648;28;20033;-77
2021/08/05 04:20:26;;;;;;;11.07;8.27;;;17.80;90.40;;;;;;5056348;28;20032;-77
2021/08/05 04:22:52;;;;;;;10.70;8.27;;;17.80;90.40;;;;;;5056297;28;20060;-77
2021/08/05 04:25:17;;;;;;;9.10;7.38;;;17.70;90.40;;;;;;5056412;28;20028;-77
2021/08/05 04:27:43;;;;;;;10.13;8.10;;;17.80;90.40;;;;;;5056142;28;20028;-77
2021/08/05 04:30:11;;;;;;;11.68;8.80;;;17.70;90.40;;;;;;5072175;28;20032;-78
2021/08/05 04:32:37;;;;;;;11.30;8.68;;;17.70;90.40;;;;;;5073163;28;20028;-77
2021/08/05 04:35:04;;;;;;;11.63;8.68;;;17.70;90.50;;;;;;5072494;28;20036;-77
2021/08/05 04:37:30;;;;;;;10.98;8.38;;;17.70;90.50;;;;;;5055667;28;20037;-77
2021/08/05 04:39:55;;;;;;;11.02;8.10;;;17.70;90.50;;;;;;5055960;28;20032;-77
2021/08/05 04:42:21;;;;;;;10.73;7.80;;;17.70;90.60;;;;;;5072443;28;20127;-77
2021/08/05 04:44:46;;;;;;;9.98;7.25;;;17.70;90.60;;;;;;5055942;28;20029;-77
2021/08/05 04:47:12;;;;;;;9.30;7.15;;;17.70;90.60;;;;;;5073772;28;20028;-77
2021/08/05 04:49:38;;;;;;;9.73;6.95;;;17.70;90.60;;;;;;5072718;28;20028;-77
2021/08/05 04:52:05;;;;;;;9.07;7.40;;;17.70;90.60;;;;;;5055907;28;20035;-77
2021/08/05 04:54:30;;;;;;;9.77;7.43;;;17.70;90.60;;;;;;5072620;28;20029;-77
2021/08/05 04:56:56;;;;;;;10.18;8.10;;;17.70;90.90;;;;;;5072393;28;20404;-77
2021/08/05 04:59:22;;;;;;;9.43;7.63;;;17.70;90.60;;;;;;5055406;28;20488;-77
2021/08/05 05:01:47;;;;;;;10.75;7.80;;;17.70;90.70;;;;;;5039098;28;20165;-77
2021/08/05 05:04:14;;;;;;;8.45;7.50;;;17.70;90.70;;;;;;5055623;28;20056;-77
2021/08/05 05:06:39;;;;;;;9.73;7.07;;;17.70;90.80;;;;;;5055929;28;20028;-77
2021/08/05 05:09:05;;;;;;;10.95;7.15;;;17.70;90.80;;;;;;5055797;28;20033;-77
2021/08/05 05:11:31;;;;;;;11.98;7.53;;;17.80;90.90;;;;;;5039147;28;20468;-76
2021/08/05 05:13:57;;;;;;;11.05;7.95;;;17.80;90.90;;;;;;5037897;28;20039;-77
2021/08/05 05:16:23;;;;;;;9.93;6.70;;;17.80;90.90;;;;;;5055276;28;20025;-75
2021/08/05 05:18:48;;;;;;;9.73;7.45;;;17.80;90.90;;;;;;5072786;28;20111;-76
2021/08/05 05:21:14;;;;;;;9.77;7.18;;;17.90;90.90;;;;;;5072017;28;20115;-76
2021/08/05 05:23:40;;;;;;;9.02;7.03;;;17.90;90.90;;;;;;5055586;28;20055;-76
2021/08/05 05:26:06;;;;;;;9.02;6.90;;;17.90;90.80;;;;;;5072054;28;20040;-76
2021/08/05 05:28:31;;;;;;;9.88;6.85;;;17.90;90.80;;;;;;5071790;28;20149;-76
2021/08/05 05:30:59;;;;;;;10.68;6.68;;;18.00;90.80;;;;;;5071947;28;20036;-76
2021/08/05 05:33:25;;;;;;;10.05;7.38;;;18.00;90.70;;;;;;5073349;28;20111;-76
2021/08/05 05:35:51;;;;;;;11.32;7.40;;;18.00;90.70;;;;;;5072050;28;20123;-76
2021/08/05 05:38:17;;;;;;;9.40;7.07;;;18.00;90.70;;;;;;5071970;28;20029;-76
2021/08/05 05:40:42;;;;;;;9.70;7.68;;;18.00;90.90;;;;;;5072735;28;20453;-76
2021/08/05 05:43:09;;;;;;;10.60;7.60;;;18.10;90.70;;;;;;5077307;28;20029;-76
2021/08/05 05:45:35;;;;;;;11.68;7.70;;;18.10;90.60;;;;;;5076078;28;20055;-76
2021/08/05 05:48:01;;;;;;;11.10;7.85;;;18.10;90.60;;;;;;5075850;28;20115;-76
2021/08/05 05:50:29;;;;;;;9.32;7.63;;;18.10;90.60;;;;;;5075841;28;20029;-76
2021/08/05 05:52:56;;;;;;;11.32;7.55;;;18.20;90.60;;;;;;5075712;28;20063;-76
2021/08/05 05:55:23;;;;;;;11.50;7.53;;;18.20;90.60;;;;;;5059428;28;20036;-76
2021/08/05 05:57:48;;;;;;;11.95;9.02;;;18.20;90.60;;;;;;5075319;28;20396;-76
2021/08/05 06:00:15;;;;;;;10.75;8.48;;;18.20;90.60;;;;;;5058878;28;20036;-76
2021/08/05 06:02:41;;;;;;;11.50;8.30;;;18.30;90.50;;;;;;5058846;28;20106;-76
2021/08/05 06:05:07;;;;;;;12.13;8.73;;;18.30;90.50;;;;;;5075336;28;20469;-76
2021/08/05 06:08:03;;;;;;;11.02;8.98;;;18.30;90.40;;;;;;5058665;28;20017;-77
2021/08/05 06:10:28;;;;;;;11.25;8.88;;;18.40;90.40;;;;;;5054384;28;20033;-76
2021/08/05 06:12:54;;;;;;;12.65;9.75;;;18.40;90.30;;;;;;5075267;28;20085;-76
2021/08/05 06:15:20;;;;;;;12.18;9.98;;;18.40;90.10;;;;;;5076359;28;20029;-76
2021/08/05 06:17:46;;;;;;;12.32;9.07;;;18.40;90.10;;;;;;5076107;28;20024;-76
2021/08/05 06:20:13;;;;;;;12.30;10.18;;;18.50;90.00;;;;;;5058497;28;20029;-76
2021/08/05 06:22:40;;;;;;;12.38;9.27;;;18.50;89.80;;;;;;5058502;28;20063;-76
2021/08/05 06:25:06;;;;;;;10.40;9.02;;;18.50;89.60;;;;;;5058594;28;20047;-76
2021/08/05 06:27:32;;;;;;;11.32;9.43;;;18.50;89.60;;;;;;5058509;28;20021;-76
2021/08/05 06:29:58;;;;;;;12.52;9.20;;;18.50;89.50;;;;;;5058235;28;20039;-77
2021/08/05 06:32:24;;;;;;;10.18;8.93;;;18.50;89.50;;;;;;5058183;28;20028;-76
2021/08/05 06:34:50;;;;;;;12.45;8.88;;;18.50;89.50;;;;;;5074913;28;20041;-76
2021/08/05 06:37:16;;;;;;;12.88;9.25;;;18.50;89.60;;;;;;5076119;28;20059;-76
2021/08/05 06:39:42;;;;;;;13.45;9.32;;;18.50;89.50;;;;;;5058279;28;20036;-77
2021/08/05 06:42:07;;;;;;;10.68;8.55;;;18.60;89.50;;;;;;5076150;28;20059;-76
2021/08/05 06:44:36;;;;;;;12.82;9.02;;;18.60;89.40;;;;;;5075080;28;20113;-76
2021/08/05 06:47:03;;;;;;;12.65;8.73;;;18.60;89.40;;;;;;5058275;28;20115;-77
2021/08/05 06:49:29;;;;;;;11.20;8.90;;;18.60;89.20;;;;;;5074756;28;20028;-76
2021/08/05 06:51:55;;;;;;;11.38;9.75;;;18.60;89.00;;;;;;5074520;28;20564;-76
2021/08/05 06:54:20;;;;;;;10.35;8.75;;;18.70;88.80;;;;;;5073892;28;20511;-76
2021/08/05 06:56:46;;;;;;;13.57;9.63;;;18.70;88.50;;;;;;5074540;28;20028;-76
2021/08/05 06:59:13;;;;;;;13.73;10.52;;;18.70;88.40;;;;;;5057919;28;20032;-77
2021/08/05 07:01:38;;;;;;;12.50;11.05;;;18.80;88.40;;;;;;5058279;28;20029;-76
2021/08/05 07:04:04;;;;;;;14.35;11.25;;;18.80;88.30;;;;;;5074249;28;20021;-76
2021/08/05 07:06:30;;;;;;;12.88;11.25;;;18.80;88.20;;;;;;5057647;28;20060;-77
2021/08/05 07:08:55;;;;;;;13.40;11.85;;;18.90;88.20;;;;;;5074089;28;20025;-76
2021/08/05 07:11:21;;;;;;;13.13;10.48;;;18.90;88.10;;;;;;5076018;28;20465;-76
2021/08/05 07:13:47;;;;;;;12.60;10.18;;;19.00;88.10;;;;;;5057555;28;20086;-76
2021/08/05 07:16:13;;;;;;;13.90;10.65;;;19.10;88.00;;;;;;5074550;28;20414;-76
2021/08/05 07:18:39;;;;;;;12.70;10.07;;;19.10;87.90;;;;;;5057934;28;20020;-76
2021/08/05 07:21:04;;;;;;;11.90;10.15;;;19.10;87.70;;;;;;5074158;28;20063;-76
2021/08/05 07:23:30;;;;;;;15.05;11.27;;;19.20;87.70;;;;;;5073887;28;20542;-76
2021/08/05 07:25:56;;;;;;;11.07;9.05;;;19.20;87.60;;;;;;5074348;28;20514;-76
2021/08/05 07:28:23;;;;;;;13.93;10.77;;;19.30;87.50;;;;;;5057577;28;20124;-76
2021/08/05 07:30:49;;;;;;;12.68;9.75;;;19.30;87.20;;;;;;5074008;28;20021;-76
2021/08/05 07:33:15;;;;;;;12.75;9.93;;;19.40;87.00;;;;;;5075225;28;20412;-76
2021/08/05 07:35:40;;;;;;;12.27;10.90;;;19.40;86.90;;;;;;5075228;28;20039;-76
2021/08/05 07:38:06;;;;;;;11.93;9.95;;;19.40;86.80;;;;;;5057198;28;20109;-76
2021/08/05 07:40:32;;;;;;;11.18;9.70;;;19.50;86.70;;;;;;5040436;28;20117;-76
2021/08/05 07:42:57;;;;;;;13.77;11.52;;;19.50;86.60;;;;;;5056915;28;20163;-76
2021/08/05 07:45:23;;;;;;;14.02;11.23;;;19.60;86.40;;;;;;5040549;28;20086;-76
2021/08/05 07:47:48;;;;;;;13.93;11.85;;;19.60;86.30;;;;;;5073700;28;20056;-76
2021/08/05 07:50:14;;;;;;;15.05;11.35;;;19.70;86.20;;;;;;5040303;28;20024;-76
2021/08/05 07:52:41;;;;;;;14.10;11.48;;;19.80;86.00;;;;;;5040601;28;20086;-76
2021/08/05 07:55:07;;;;;;;14.50;11.50;;;19.90;86.00;;;;;;5073814;28;20032;-76
2021/08/05 07:57:34;;;;;;;12.93;11.35;;;19.90;85.60;;;;;;5073213;28;20025;-76
2021/08/05 08:00:00;;;;;;;13.70;12.20;;;20.00;85.40;;;;;;5073485;28;20058;-76
2021/08/05 08:02:27;;;;;;;14.63;12.40;;;20.00;85.10;;;;;;5056661;28;20028;-76
2021/08/05 08:04:53;;;;;;;14.45;10.57;;;20.10;84.90;;;;;;5055775;28;20356;-76
2021/08/05 08:07:18;;;;;;;13.23;11.82;;;20.20;84.70;;;;;;5073171;28;20021;-76
2021/08/05 08:09:44;;;;;;;12.02;10.38;;;20.30;84.50;;;;;;5056517;28;20036;-76
2021/08/05 08:12:10;;;;;;;13.60;12.18;;;20.30;84.20;;;;;;5073257;28;20111;-76
2021/08/05 08:14:36;;;;;;;12.43;11.00;;;20.40;83.70;;;;;;5074576;28;20538;-76
2021/08/05 08:17:01;;;;;;;13.93;10.80;;;20.40;83.40;;;;;;5073554;28;20083;-76
2021/08/05 08:19:28;;;;;;;13.68;11.73;;;20.50;83.10;;;;;;5035367;28;20021;-76
2021/08/05 08:21:53;;;;;;;15.00;12.73;;;20.50;82.90;;;;;;5069131;28;20028;-76
2021/08/05 08:24:20;;;;;;;12.95;11.15;;;20.50;82.70;;;;;;5052427;28;20055;-76
2021/08/05 08:26:45;;;;;;;13.50;12.00;;;20.60;82.60;;;;;;5052674;28;20033;-76
2021/08/05 08:29:11;;;;;;;14.90;12.30;;;20.60;82.40;;;;;;5036043;28;20492;-76
2021/08/05 08:31:37;;;;;;;23.35;14.05;;;20.70;82.30;;;;;;5035906;28;20393;-76
2021/08/05 08:34:02;;;;;;;17.90;15.63;;;20.80;82.10;;;;;;5052386;28;20056;-76
2021/08/05 08:36:28;;;;;;;16.63;14.32;;;21.00;81.80;;;;;;5052311;28;20120;-77
2021/08/05 08:38:54;;;;;;;15.57;13.55;;;21.00;82.30;;;;;;5052525;28;20025;-76
2021/08/05 08:41:20;;;;;;;15.60;11.75;;;21.20;81.50;;;;;;5052306;28;20041;-77
2021/08/05 08:43:46;;;;;;;15.98;13.18;;;21.40;81.40;;;;;;5052424;28;20087;-77
2021/08/05 08:46:12;;;;;;;14.88;12.85;;;21.60;81.10;;;;;;5052310;28;20017;-76
2021/08/05 08:48:41;;;;;;;17.77;12.82;;;21.70;80.60;;;;;;5052437;28;20036;-76
2021/08/05 08:51:07;;;;;;;16.70;13.98;;;21.80;80.10;;;;;;5052368;28;20104;-77
2021/08/05 08:53:37;;;;;;;15.75;12.80;;;22.00;79.60;;;;;;5035638;28;20086;-76
2021/08/05 08:56:07;;;;;;;15.23;12.40;;;22.10;79.00;;;;;;5053346;28;20670;-76
2021/08/05 08:58:34;;;;;;;14.30;12.38;;;22.30;78.40;;;;;;5052112;28;20036;-76
2021/08/05 09:00:59;;;;;;;13.57;12.02;;;22.40;77.80;;;;;;5053262;28;20048;-76
2021/08/05 09:03:26;;;;;;;15.40;13.48;;;22.50;76.80;;;;;;5052164;28;20476;-76
2021/08/05 09:05:52;;;;;;;16.73;14.20;;;22.70;76.00;;;;;;5052052;28;20527;-76
2021/08/05 09:08:18;;;;;;;14.88;13.27;;;22.70;75.20;;;;;;5061043;28;20033;-76
2021/08/05 09:10:43;;;;;;;17.10;13.25;;;22.80;74.30;;;;;;5051967;28;20033;-76
2021/08/05 09:13:09;;;;;;;15.23;12.13;;;22.90;73.80;;;;;;5035310;28;20039;-76
2021/08/05 09:15:36;;;;;;;16.13;13.30;;;23.00;73.30;;;;;;5052245;28;20035;-76
2021/08/05 09:18:03;;;;;;;14.75;11.90;;;23.10;72.90;;;;;;5052258;28;20064;-76
2021/08/05 09:20:29;;;;;;;13.93;11.00;;;23.20;73.00;;;;;;5035729;28;20119;-76
2021/08/05 09:22:55;;;;;;;14.15;11.38;;;23.40;71.50;;;;;;5053341;28;20112;-76
2021/08/05 09:25:33;;;;;;;12.35;10.80;;;23.50;70.90;;;;;;5035648;28;20041;-76
2021/08/05 09:28:19;;;;;;;13.25;11.48;;;23.60;70.10;;;;;;5051956;28;20021;-76
2021/08/05 09:30:45;;;;;;;13.82;10.75;;;23.60;69.50;;;;;;5034982;28;20042;-76
2021/08/05 09:33:14;;;;;;;14.52;11.68;;;23.60;70.10;;;;;;5051847;28;20429;-76
2021/08/05 09:35:41;;;;;;;12.32;11.05;;;23.60;69.00;;;;;;5053330;28;20036;-76
2021/08/05 09:38:26;;;;;;;13.52;10.93;;;23.70;68.60;;;;;;5051652;28;20154;-76
2021/08/05 09:41:04;;;;;;;15.63;11.43;;;23.80;68.00;;;;;;5053174;28;20516;-76
2021/08/05 09:43:30;;;;;;;13.30;11.60;;;23.70;67.70;;;;;;5051620;28;20621;-76
2021/08/05 09:45:57;;;;;;;13.40;11.18;;;23.70;67.90;;;;;;5052938;28;20025;-76
2021/08/05 09:48:49;;;;;;;15.10;12.43;;;23.70;68.00;;;;;;5052223;28;20427;-76
2021/08/05 09:51:17;;;;;;;11.63;9.02;;;23.80;67.80;;;;;;5054045;28;20488;-76
2021/08/05 09:54:03;;;;;;;12.23;7.78;;;23.80;67.10;;;;;;5034942;28;20408;-76
2021/08/05 09:56:32;;;;;;;8.63;7.38;;;23.90;65.70;;;;;;5051619;28;20025;-76
2021/08/05 09:59:13;;;;;;;10.48;7.78;;;23.90;65.10;;;;;;5051666;28;20047;-76
2021/08/05 10:02:05;;;;;;;14.40;10.32;;;23.90;64.60;;;;;;5034798;28;20488;-76
2021/08/05 10:04:35;;;;;;;10.60;8.25;;;24.00;64.20;;;;;;5035342;28;20127;-74
2021/08/05 10:07:03;;;;;;;12.77;10.25;;;24.10;64.40;;;;;;5051505;28;20033;-76
2021/08/05 10:09:30;;;;;;;11.48;9.27;;;24.10;64.30;;;;;;5051469;28;20512;-76
2021/08/05 10:12:20;;;;;;;12.80;11.25;;;24.20;64.40;;;;;;5053001;28;20025;-75
2021/08/05 10:14:49;;;;;;;9.20;7.93;;;24.30;64.20;;;;;;5052714;28;20029;-76
2021/08/05 10:17:16;;;;;;;15.23;9.98;;;24.40;64.30;;;;;;5052969;28;20036;-74
2021/08/05 10:19:46;;;;;;;12.73;10.18;;;24.50;64.00;;;;;;5052794;28;20021;-76
2021/08/05 10:22:14;;;;;;;12.27;9.90;;;24.50;63.20;;;;;;5051016;28;20037;-77
2021/08/05 10:24:46;;;;;;;11.35;8.52;;;24.60;62.80;;;;;;5052426;28;20120;-76
2021/08/05 10:27:13;;;;;;;10.38;9.15;;;24.80;62.50;;;;;;5052289;28;20083;-76
2021/08/05 10:29:40;;;;;;;12.50;10.40;;;25.00;62.00;;;;;;5056324;28;20028;-75
2021/08/05 10:32:08;;;;;;;11.10;9.35;;;25.20;60.90;;;;;;5056221;28;20029;-77
2021/08/05 10:34:35;;;;;;;9.93;8.18;;;25.30;60.80;;;;;;5022083;28;20112;-77
2021/08/05 10:37:02;;;;;;;11.02;8.57;;;25.50;60.80;;;;;;5054981;28;20481;-77
2021/08/05 10:39:29;;;;;;;10.32;8.68;;;25.80;60.60;;;;;;5038155;28;20021;-77
2021/08/05 10:41:58;;;;;;;9.35;7.50;;;25.90;60.10;;;;;;5056453;28;20021;-77
2021/08/05 10:44:25;;;;;;;9.25;7.97;;;26.20;59.90;;;;;;5056282;28;20030;-76
2021/08/05 10:46:51;;;;;;;9.90;7.88;;;26.60;59.70;;;;;;5038382;28;20029;-75
2021/08/05 10:49:17;;;;;;;9.75;6.75;;;27.00;58.80;;;;;;5054509;28;20485;-77
2021/08/05 10:51:43;;;;;;;9.15;6.80;;;27.40;57.80;;;;;;5055937;28;20041;-77
2021/08/05 10:54:09;;;;;;;8.80;6.63;;;27.90;57.40;;;;;;5037974;28;20078;-77
2021/08/05 10:56:35;;;;;;;7.00;5.43;;;28.40;55.90;;;;;;5056417;28;20116;-74
2021/08/05 10:59:11;;;;;;;7.97;6.72;;;29.00;55.20;;;;;;5038012;28;20059;-76
2021/08/05 11:01:53;;;;;;;7.30;6.40;;;29.50;53.60;;;;;;5054230;28;20090;-75
2021/08/05 11:04:34;;;;;;;6.88;6.03;;;30.10;52.20;;;;;;5039124;28;20437;-75
2021/08/05 11:07:30;;;;;;;6.95;5.10;;;30.60;50.90;;;;;;5054230;28;20029;-75
2021/08/05 11:10:16;;;;;;;6.60;5.05;;;31.20;50.40;;;;;;5055384;28;20028;-74
2021/08/05 11:12:45;;;;;;;8.43;5.55;;;31.80;49.70;;;;;;5055459;28;20029;-75
2021/08/05 11:15:33;;;;;;;7.57;6.28;;;32.40;49.60;;;;;;5053795;28;20036;-75
2021/08/05 11:18:10;;;;;;;7.22;6.10;;;32.90;46.60;;;;;;5054037;28;20523;-75
2021/08/05 11:20:50;;;;;;;7.22;6.53;;;33.20;46.10;;;;;;5054994;28;20025;-75
2021/08/05 11:23:25;;;;;;;6.47;5.47;;;33.50;44.90;;;;;;5053879;28;20056;-75
2021/08/05 11:25:51;;;;;;;7.75;6.03;;;33.90;44.70;;;;;;5053848;28;20029;-77
2021/08/05 11:28:23;;;;;;;8.63;6.78;;;34.30;44.80;;;;;;5053788;28;20029;-77
2021/08/05 11:31:03;;;;;;;7.90;6.15;;;34.70;43.50;;;;;;5053670;28;20029;-76
2021/08/05 11:33:38;;;;;;;7.70;5.97;;;35.00;42.60;;;;;;5053591;28;20024;-76
2021/08/05 11:36:22;;;;;;;7.55;5.20;;;35.10;41.90;;;;;;5054680;28;20111;-78
2021/08/05 11:39:20;;;;;;;7.95;6.15;;;35.10;41.50;;;;;;5054386;28;20018;-77
2021/08/05 11:41:59;;;;;;;6.55;5.70;;;34.60;40.40;;;;;;5054757;28;20021;-77
2021/08/05 11:44:30;;;;;;;7.32;6.60;;;33.90;40.60;;;;;;5053571;28;20021;-76
2021/08/05 11:47:05;;;;;;;8.05;7.25;;;33.30;41.00;;;;;;5053540;28;20120;-77
2021/08/05 11:49:52;;;;;;;8.05;6.50;;;32.80;41.30;;;;;;5053275;28;20112;-77
2021/08/05 11:52:28;;;;;;;8.30;7.40;;;32.50;41.70;;;;;;5053078;28;20127;-76
2021/08/05 11:55:08;;;;;;;8.43;6.45;;;32.30;41.80;;;;;;5054578;28;20032;-76
2021/08/05 11:57:57;;;;;;;7.05;5.93;;;32.30;42.00;;;;;;5053365;28;20036;-76
2021/08/05 12:00:29;;;;;;;5.75;4.90;;;32.30;42.10;;;;;;5052802;28;20037;-76
2021/08/05 12:03:09;;;;;;;6.70;4.28;;;32.60;42.80;;;;;;5053475;28;20036;-76
2021/08/05 12:05:46;;;;;;;6.55;5.85;;;33.10;42.00;;;;;;5054620;28;20025;-77
2021/08/05 12:08:12;;;;;;;7.18;5.85;;;33.50;41.60;;;;;;5053089;28;20032;-77
2021/08/05 12:10:40;;;;;;;6.80;6.10;;;33.50;41.30;;;;;;5054234;28;20032;-77
2021/08/05 12:13:16;;;;;;;6.45;5.53;;;33.40;40.80;;;;;;5054240;28;20025;-77
2021/08/05 12:15:45;;;;;;;5.50;4.45;;;33.10;40.80;;;;;;5054248;28;20036;-76
2021/08/05 12:18:16;;;;;;;13.98;6.18;;;32.60;40.80;;;;;;5052929;28;20029;-76
2021/08/05 12:20:54;;;;;;;6.60;5.43;;;32.20;41.00;;;;;;5053048;28;20037;-77
2021/08/05 12:23:32;;;;;;;7.63;5.78;;;31.70;41.70;;;;;;5052854;28;20051;-76
2021/08/05 12:26:35;;;;;;;7.70;6.75;;;31.10;42.60;;;;;;5053971;28;20028;-77
2021/08/05 12:28:55;;;;;;;8.75;6.53;;;30.70;43.70;;;;;;5053715;28;20025;-76
2021/08/05 12:31:23;;;;;;;7.97;7.05;;;30.20;44.00;;;;;;5036062;28;20527;-76
2021/08/05 12:33:50;;;;;;;8.85;7.13;;;29.80;43.70;;;;;;5052765;28;20033;-74
2021/08/05 12:36:20;;;;;;;10.23;7.28;;;29.40;44.30;;;;;;5053993;28;20032;-75
2021/08/05 12:38:53;;;;;;;8.98;7.20;;;29.00;45.10;;;;;;5053859;28;20033;-76
2021/08/05 12:41:38;;;;;;;11.82;8.90;;;28.70;46.10;;;;;;5052535;28;20114;-76
2021/08/05 12:44:17;;;;;;;12.07;10.80;;;28.30;47.30;;;;;;5054400;28;20036;-75
2021/08/05 12:46:45;;;;;;;14.73;11.48;;;28.00;49.20;;;;;;5072712;28;20025;-75
2021/08/05 12:49:11;;;;;;;17.25;13.38;;;27.70;50.60;;;;;;5071909;28;20025;-75